createdAt,value
2019-04-22T00:01:16.417Z,86.66
2019-04-22T00:03:49.989Z,86.80
2019-04-22T00:06:32.776Z,87.34
2019-04-22T00:09:11.214Z,87.19
2019-04-22T00:11:35.512Z,87.24
2019-04-22T00:14:10.563Z,87.43
2019-04-22T00:16:46.914Z,87.90
2019-04-22T00:21:48.994Z,88.06
2019-04-22T00:24:11.986Z,88.18
2019-04-22T00:26:44.025Z,88.59
2019-04-22T00:29:39.258Z,88.56
2019-04-22T00:32:05.238Z,88.89
2019-04-22T00:34:40.869Z,88.81
2019-04-22T00:37:11.695Z,88.92
2019-04-22T00:42:17.892Z,89.00
2019-04-22T00:44:45.389Z,89.11
2019-04-22T00:47:26.678Z,89.39
2019-04-22T00:52:16.622Z,89.19
2019-04-22T00:54:53.253Z,89.49
2019-04-22T00:57:21.566Z,89.75
2019-04-22T00:59:52.237Z,89.78
2019-04-22T01:02:27.175Z,89.61
2019-04-22T01:04:56.972Z,89.78
2019-04-22T01:07:23.826Z,90.10
2019-04-22T01:09:58.639Z,89.90
2019-04-22T01:12:28.401Z,89.84
2019-04-22T01:15:01.104Z,89.97
2019-04-22T01:17:35.930Z,90.00
2019-04-22T01:20:04.995Z,89.89
2019-04-22T01:22:29.376Z,89.84
2019-04-22T01:25:01.928Z,89.69
2019-04-22T01:27:33.432Z,89.64
2019-04-22T01:29:59.763Z,90.08
2019-04-22T01:32:22.917Z,89.87
2019-04-22T01:35:02.379Z,89.69
2019-04-22T01:37:34.582Z,89.71
2019-04-22T01:40:19.497Z,89.68
2019-04-22T01:42:48.540Z,89.53
2019-04-22T01:45:17.766Z,89.82
2019-04-22T01:47:49.238Z,89.79
2019-04-22T01:50:22.537Z,90.32
2019-04-22T01:52:54.577Z,90.07
2019-04-22T01:55:27.724Z,90.15
2019-04-22T01:57:51.582Z,90.21
2019-04-22T02:00:16.395Z,90.51
2019-04-22T02:02:59.231Z,90.45
2019-04-22T02:05:24.417Z,90.65
2019-04-22T02:07:58.010Z,90.70
2019-04-22T02:10:34.697Z,90.93
2019-04-22T02:13:02.012Z,91.20
2019-04-22T02:15:31.669Z,91.44
2019-04-22T02:18:10.732Z,91.50
2019-04-22T02:20:41.064Z,91.36
2019-04-22T02:26:01.210Z,91.17
2019-04-22T02:28:38.332Z,91.17
2019-04-22T02:31:23.537Z,91.65
2019-04-22T02:43:55.373Z,91.92
2019-04-22T02:51:16.385Z,91.83
2019-04-22T02:56:27.111Z,91.77
2019-04-22T03:04:00.635Z,92.32
2019-04-22T03:19:05.872Z,92.74
2019-04-22T03:21:29.982Z,92.59
2019-04-22T03:26:31.759Z,93.50
2019-04-22T03:29:07.471Z,93.27
2019-04-22T03:39:45.912Z,93.31
2019-04-22T03:42:05.716Z,93.25
2019-04-22T03:47:11.682Z,92.20
2019-04-22T03:54:47.706Z,91.67
2019-04-22T04:02:15.704Z,90.46
2019-04-22T04:07:20.148Z,89.45
2019-04-22T04:09:49.952Z,88.21
2019-04-22T04:15:05.505Z,87.14
2019-04-22T04:22:30.679Z,84.62
2019-04-22T04:25:22.078Z,83.75
2019-04-22T04:30:12.120Z,80.45
2019-04-22T04:32:41.653Z,78.99
2019-04-22T04:35:16.921Z,78.65
2019-04-22T04:37:41.780Z,77.96
2019-04-22T04:47:43.566Z,71.46
2019-04-22T04:50:06.932Z,69.44
2019-04-22T04:55:12.352Z,65.47
2019-04-22T05:00:31.960Z,64.26
2019-04-22T05:03:10.595Z,63.09
2019-04-22T05:05:12.376Z,60.66
2019-04-22T05:07:44.315Z,59.90
2019-04-22T05:10:35.107Z,57.94
2019-04-22T05:15:15.398Z,54.46
2019-04-22T05:17:43.908Z,53.65
2019-04-22T05:22:39.726Z,51.42
2019-04-22T05:25:11.751Z,50.12
2019-04-22T05:30:23.381Z,46.91
2019-04-22T05:32:44.616Z,45.52
2019-04-22T05:35:14.464Z,45.04
2019-04-22T05:37:49.953Z,44.63
2019-04-22T05:40:20.141Z,43.98
2019-04-22T05:42:52.833Z,43.73
2019-04-22T05:45:23.236Z,43.42
2019-04-22T05:47:51.990Z,44.60
2019-04-22T05:50:20.467Z,44.23
2019-04-22T05:52:57.059Z,44.55
2019-04-22T05:55:30.469Z,44.26
2019-04-22T05:58:08.995Z,43.80
2019-04-22T06:01:00.774Z,43.10
2019-04-22T06:05:35.936Z,44.65
2019-04-22T06:08:04.128Z,40.98
2019-04-22T06:10:39.349Z,41.36
2019-04-22T06:13:06.719Z,39.64
2019-04-22T06:15:52.926Z,42.65
2019-04-22T06:18:16.125Z,41.80
2019-04-22T06:20:56.967Z,42.04
2019-04-22T06:23:25.648Z,42.40
2019-04-22T06:28:29.100Z,42.92
2019-04-22T06:30:57.520Z,43.45
2019-04-22T06:33:31.615Z,44.76
2019-04-22T06:35:58.916Z,45.64
2019-04-22T06:38:34.018Z,44.66
2019-04-22T06:41:04.437Z,44.68
2019-04-22T06:43:28.286Z,44.32
2019-04-22T06:46:06.291Z,45.00
2019-04-22T06:48:31.688Z,43.23
2019-04-22T06:51:05.166Z,42.13
2019-04-22T06:53:34.405Z,43.45
2019-04-22T06:56:11.397Z,43.12
2019-04-22T06:58:36.744Z,41.52
2019-04-22T07:01:09.482Z,41.29
2019-04-22T07:03:53.662Z,40.04
2019-04-22T07:06:17.503Z,39.44
2019-04-22T07:09:05.993Z,40.44
2019-04-22T07:11:05.742Z,39.63
2019-04-22T07:13:43.427Z,39.90
2019-04-22T07:16:18.602Z,42.91
2019-04-22T07:21:12.509Z,44.48
2019-04-22T07:23:51.279Z,42.79
2019-04-22T07:26:13.959Z,41.47
2019-04-22T07:28:49.048Z,42.75
2019-04-22T07:31:20.645Z,42.40
2019-04-22T07:33:58.371Z,41.71
2019-04-22T07:38:49.155Z,41.92
2019-04-22T07:41:27.378Z,42.84
2019-04-22T07:46:26.332Z,43.48
2019-04-22T07:48:59.434Z,43.56
2019-04-22T07:51:32.632Z,43.62
2019-04-22T07:54:03.126Z,41.23
2019-04-22T07:56:34.796Z,40.47
2019-04-22T07:59:03.476Z,41.13
2019-04-22T08:01:30.503Z,44.60
2019-04-22T08:06:38.502Z,38.74
2019-04-22T08:09:13.806Z,38.70
2019-04-22T08:14:14.956Z,37.40
2019-04-22T08:16:45.168Z,36.95
2019-04-22T08:19:15.843Z,36.86
2019-04-22T08:21:49.051Z,36.92
2019-04-22T08:24:18.411Z,39.27
2019-04-22T08:26:45.385Z,38.95
2019-04-22T08:29:19.114Z,40.64
2019-04-22T08:31:48.807Z,38.87
2019-04-22T08:34:20.827Z,42.11
2019-04-22T08:37:22.809Z,40.79
2019-04-22T08:39:23.200Z,38.06
2019-04-22T08:41:43.538Z,40.70
2019-04-22T08:44:27.845Z,41.53
2019-04-22T08:49:28.722Z,43.04
2019-04-22T08:51:56.123Z,41.53
2019-04-22T08:54:33.886Z,42.26
2019-04-22T08:57:07.231Z,41.60
2019-04-22T08:59:33.639Z,41.93
2019-04-22T09:02:09.652Z,42.66
2019-04-22T09:04:31.380Z,44.91
2019-04-22T09:07:12.988Z,47.50
2019-04-22T09:09:42.442Z,46.38
2019-04-22T09:12:07.861Z,47.31
2019-04-22T09:17:13.666Z,46.40
2019-04-22T09:19:35.212Z,46.21
2019-04-22T09:22:11.270Z,44.90
2019-04-22T09:24:43.552Z,44.90
2019-04-22T09:27:18.752Z,45.26
2019-04-22T09:29:43.069Z,45.52
2019-04-22T09:32:18.479Z,44.36
2019-04-22T09:34:46.961Z,42.30
2019-04-22T09:42:24.065Z,42.53
2019-04-22T09:45:06.091Z,39.81
2019-04-22T09:47:24.930Z,43.25
2019-04-22T09:50:10.006Z,42.62
2019-04-22T09:52:20.547Z,44.19
2019-04-22T09:55:03.052Z,44.83
2019-04-22T09:57:24.609Z,45.26
2019-04-22T10:00:04.396Z,46.26
2019-04-22T10:02:34.300Z,46.49
2019-04-22T10:07:32.462Z,47.17
2019-04-22T10:10:09.960Z,47.14
2019-04-22T10:12:36.703Z,47.14
2019-04-22T10:15:19.700Z,47.20
2019-04-22T10:17:39.567Z,46.49
2019-04-22T10:20:05.578Z,46.03
2019-04-22T10:25:14.554Z,46.92
2019-04-22T10:27:46.242Z,44.50
2019-04-22T10:30:16.856Z,44.97
2019-04-22T10:32:46.081Z,46.62
2019-04-22T10:35:14.378Z,47.52
2019-04-22T10:37:40.576Z,45.70
2019-04-22T10:40:19.556Z,47.66
2019-04-22T10:42:51.461Z,46.40
2019-04-22T10:45:21.959Z,44.70
2019-04-22T10:47:52.263Z,44.04
2019-04-22T10:50:24.742Z,44.36
2019-04-22T10:52:55.274Z,44.36
2019-04-22T10:55:25.440Z,44.05
2019-04-22T10:57:54.916Z,44.93
2019-04-22T11:00:24.307Z,47.09
2019-04-22T11:02:53.866Z,46.88
2019-04-22T11:05:24.123Z,46.78
2019-04-22T11:07:57.915Z,46.71
2019-04-22T11:10:36.955Z,47.37
2019-04-22T11:12:56.775Z,45.65
2019-04-22T11:15:26.636Z,47.94
2019-04-22T11:17:57.650Z,47.82
2019-04-22T11:20:27.163Z,50.48
2019-04-22T11:22:56.495Z,53.98
2019-04-22T11:25:25.801Z,58.07
2019-04-22T11:27:55.817Z,62.82
2019-04-22T11:30:28.132Z,66.24
2019-04-22T11:32:58.293Z,68.09
2019-04-22T11:35:27.996Z,69.76
2019-04-22T11:37:57.276Z,70.50
2019-04-22T11:40:34.568Z,70.79
2019-04-22T11:42:59.669Z,70.55
2019-04-22T11:45:29.523Z,70.08
2019-04-22T11:47:59.510Z,70.65
2019-04-22T11:50:30.190Z,70.60
2019-04-22T11:53:00.792Z,70.96
2019-04-22T11:55:30.915Z,71.29
2019-04-22T11:58:01.061Z,70.90
2019-04-22T12:00:33.021Z,70.60
2019-04-22T12:03:03.200Z,71.23
2019-04-22T12:05:34.198Z,71.29
2019-04-22T12:08:04.969Z,71.41
2019-04-22T12:10:40.911Z,72.23
2019-04-22T12:13:06.296Z,71.89
2019-04-22T12:15:37.163Z,72.30
2019-04-22T12:18:07.365Z,71.80
2019-04-22T12:20:37.226Z,72.52
2019-04-22T12:23:07.416Z,71.75
2019-04-22T12:25:46.439Z,71.28
2019-04-22T12:28:09.096Z,71.27
2019-04-22T12:30:39.416Z,71.69
2019-04-22T12:33:12.643Z,70.46
2019-04-22T12:35:42.195Z,70.89
2019-04-22T12:38:14.307Z,71.14
2019-04-22T12:40:51.305Z,71.47
2019-04-22T12:43:16.150Z,71.81
2019-04-22T12:45:45.212Z,70.87
2019-04-22T12:48:15.062Z,70.57
2019-04-22T12:50:48.002Z,70.36
2019-04-22T12:53:18.790Z,70.60
2019-04-22T12:55:48.087Z,72.21
2019-04-22T12:58:18.105Z,72.01
2019-04-22T13:00:48.395Z,72.02
2019-04-22T13:03:18.286Z,72.74
2019-04-22T13:05:47.523Z,72.76
2019-04-22T13:08:19.875Z,72.42
2019-04-22T13:10:58.698Z,72.66
2019-04-22T13:13:20.827Z,73.02
2019-04-22T13:15:51.004Z,74.23
2019-04-22T13:18:30.988Z,73.62
2019-04-22T13:20:52.836Z,73.61
2019-04-22T13:23:22.260Z,74.50
2019-04-22T13:25:52.630Z,72.93
2019-04-22T13:28:23.026Z,72.83
2019-04-22T13:30:52.904Z,72.56
2019-04-22T13:33:23.212Z,73.62
2019-04-22T13:35:54.262Z,74.12
2019-04-22T13:38:24.998Z,73.44
2019-04-22T13:41:07.295Z,73.83
2019-04-22T13:43:26.739Z,73.98
2019-04-22T13:45:56.511Z,74.37
2019-04-22T13:48:51.045Z,75.38
2019-04-22T13:54:36.466Z,76.79
2019-04-22T13:56:19.131Z,76.45
2019-04-22T13:58:44.800Z,76.89
2019-04-22T14:01:06.957Z,76.44
2019-04-22T14:03:54.584Z,75.63
2019-04-22T14:06:25.058Z,75.57
2019-04-22T14:08:55.696Z,76.35
2019-04-22T14:11:35.091Z,76.06
2019-04-22T14:13:56.756Z,76.32
2019-04-22T14:16:27.024Z,76.23
2019-04-22T14:18:57.993Z,76.21
2019-04-22T14:21:27.736Z,76.82
2019-04-22T14:23:58.415Z,77.97
2019-04-22T14:26:41.302Z,77.34
2019-04-22T14:28:59.945Z,77.52
2019-04-22T14:31:30.754Z,77.57
2019-04-22T14:34:04.984Z,77.61
2019-04-22T14:36:31.194Z,78.01
2019-04-22T14:39:01.922Z,77.21
2019-04-22T14:41:43.562Z,76.66
2019-04-22T14:45:04.929Z,76.24
2019-04-22T14:47:03.479Z,76.95
2019-04-22T14:49:28.282Z,76.70
2019-04-22T14:51:58.770Z,76.92
2019-04-22T14:54:25.570Z,77.25
2019-04-22T14:56:38.278Z,76.95
2019-04-22T14:59:09.195Z,77.11
2019-04-22T15:01:41.407Z,77.38
2019-04-22T15:04:10.907Z,77.58
2019-04-22T15:06:43.106Z,77.82
2019-04-22T15:09:12.236Z,77.70
2019-04-22T15:11:50.767Z,77.72
2019-04-22T15:14:12.734Z,77.31
2019-04-22T15:17:07.145Z,77.75
2019-04-22T15:19:54.283Z,78.66
2019-04-22T15:22:23.611Z,78.13
2019-04-22T15:24:54.201Z,78.75
2019-04-22T15:27:26.132Z,78.33
2019-04-22T15:29:54.878Z,78.51
2019-04-22T15:32:25.272Z,78.80
2019-04-22T15:34:55.385Z,79.64
2019-04-22T15:37:24.721Z,79.45
2019-04-22T15:39:56.684Z,79.24
2019-04-22T15:42:28.720Z,79.07
2019-04-22T15:44:56.102Z,79.83
2019-04-22T15:47:26.903Z,79.73
2019-04-22T15:49:58.243Z,79.23
2019-04-22T15:52:32.075Z,79.53
2019-04-22T15:54:58.725Z,79.61
2019-04-22T15:57:28.899Z,79.61
2019-04-22T16:00:14.432Z,79.13
2019-04-22T16:02:29.799Z,79.16
2019-04-22T16:04:59.176Z,79.46
2019-04-22T16:07:29.765Z,79.12
2019-04-22T16:09:59.607Z,79.34
2019-04-22T16:12:37.728Z,79.37
2019-04-22T16:15:03.068Z,79.39
2019-04-22T16:17:32.686Z,79.30
2019-04-22T16:20:03.551Z,79.72
2019-04-22T16:22:51.967Z,79.83
2019-04-22T16:25:38.833Z,80.17
2019-04-22T16:28:08.927Z,79.83
2019-04-22T16:30:39.477Z,80.32
2019-04-22T16:33:09.915Z,80.47
2019-04-22T16:35:40.541Z,80.86
2019-04-22T16:38:10.871Z,80.33
2019-04-22T16:40:40.897Z,80.69
2019-04-22T16:43:11.953Z,80.89
2019-04-22T16:45:41.296Z,81.27
2019-04-22T16:48:11.582Z,81.56
2019-04-22T16:50:42.838Z,81.51
2019-04-22T16:53:13.828Z,82.06
2019-04-22T16:55:44.574Z,82.06
2019-04-22T16:58:14.777Z,82.03
2019-04-22T17:00:45.054Z,82.54
2019-04-22T17:03:32.359Z,83.12
2019-04-22T17:06:17.415Z,83.42
2019-04-22T17:08:46.899Z,83.24
2019-04-22T17:11:16.291Z,83.53
2019-04-22T17:13:46.532Z,83.47
2019-04-22T17:16:18.053Z,83.47
2019-04-22T17:18:47.523Z,83.22
2019-04-22T17:21:17.583Z,83.40
2019-04-22T17:23:47.611Z,83.87
2019-04-22T17:26:16.924Z,83.98
2019-04-22T17:28:46.236Z,84.33
2019-04-22T17:31:16.456Z,84.18
2019-04-22T17:33:46.725Z,84.80
2019-04-22T17:36:16.495Z,84.64
2019-04-22T17:38:55.008Z,84.92
2019-04-22T17:41:28.821Z,85.13
2019-04-22T17:44:12.249Z,85.56
2019-04-22T17:46:57.701Z,85.84
2019-04-22T17:49:43.067Z,85.91
2019-04-22T17:54:50.186Z,86.18
2019-04-22T17:57:21.731Z,86.42
2019-04-22T17:59:50.610Z,86.25
2019-04-22T18:02:22.352Z,86.45
2019-04-22T18:04:45.471Z,86.73
2019-04-22T18:07:41.167Z,87.00
2019-04-22T18:10:24.266Z,87.04
2019-04-22T18:12:40.057Z,87.28
2019-04-22T18:15:04.321Z,87.33
2019-04-22T18:17:35.520Z,87.61
2019-04-22T18:19:58.327Z,87.90
2019-04-22T18:22:27.396Z,88.11
2019-04-22T18:24:58.363Z,88.05
2019-04-22T18:30:03.927Z,88.26
2019-04-22T18:32:38.088Z,88.35
2019-04-22T18:35:10.433Z,88.53
2019-04-22T18:37:43.759Z,88.59
2019-04-22T18:40:15.022Z,88.59
2019-04-22T18:42:42.011Z,88.63
2019-04-22T18:45:29.749Z,88.35
2019-04-22T18:47:43.638Z,88.44
2019-04-22T18:50:24.621Z,88.12
2019-04-22T18:53:23.466Z,88.04
2019-04-22T18:55:57.095Z,87.81
2019-04-22T18:58:27.514Z,87.57
2019-04-22T19:00:43.951Z,86.91
2019-04-22T19:03:19.651Z,86.70
2019-04-22T19:06:21.614Z,86.35
2019-04-22T19:08:36.589Z,86.18
2019-04-22T19:11:20.875Z,86.03
2019-04-22T19:21:13.420Z,86.51
2019-04-22T19:23:44.849Z,87.16
2019-04-22T19:26:23.221Z,87.55
2019-04-22T19:28:48.343Z,87.59
2019-04-22T19:31:19.162Z,88.03
2019-04-22T19:33:56.342Z,88.19
2019-04-22T19:36:21.009Z,89.07
2019-04-22T19:38:49.780Z,89.02
2019-04-22T19:41:26.432Z,89.33
2019-04-22T19:43:58.117Z,89.88
2019-04-22T19:46:22.137Z,90.28
2019-04-22T19:48:57.994Z,90.57
2019-04-22T19:53:56.029Z,91.41
2019-04-22T19:56:25.375Z,91.75
2019-04-22T19:58:57.459Z,92.02
2019-04-22T20:01:41.674Z,92.36
2019-04-22T20:06:55.165Z,93.19
2019-04-22T20:09:39.730Z,92.69
2019-04-22T20:12:02.540Z,92.37
2019-04-22T20:14:37.377Z,92.00
2019-04-22T20:16:58.523Z,91.77
2019-04-22T20:19:41.559Z,91.24
2019-04-22T20:22:03.041Z,90.27
2019-04-22T20:24:21.709Z,89.87
2019-04-22T20:27:10.597Z,88.76
2019-04-22T20:29:43.374Z,88.34
2019-04-22T20:32:10.976Z,88.20
2019-04-22T20:34:44.356Z,88.08
2019-04-22T20:37:20.706Z,87.93
2019-04-22T20:39:48.813Z,87.67
2019-04-22T20:44:47.291Z,87.16
2019-04-22T20:47:16.491Z,86.99
2019-04-22T20:49:48.860Z,87.17
2019-04-22T20:52:33.130Z,87.16
2019-04-22T20:54:49.065Z,86.89
2019-04-22T20:57:17.343Z,87.13
2019-04-22T20:59:48.412Z,87.15
2019-04-22T21:02:16.401Z,86.29
2019-04-22T21:04:44.134Z,86.41
2019-04-22T21:07:19.545Z,86.19
2019-04-22T21:09:56.616Z,86.57
2019-04-22T21:12:21.183Z,86.50
2019-04-22T21:15:05.560Z,87.12
2019-04-22T21:17:30.965Z,87.50
2019-04-22T21:20:09.494Z,88.00
2019-04-22T21:22:33.845Z,88.42
2019-04-22T21:25:00.615Z,89.08
2019-04-22T21:27:35.731Z,89.22
2019-04-22T21:29:58.674Z,90.24
2019-04-22T21:32:34.197Z,91.15
2019-04-22T21:35:12.051Z,91.75
2019-04-22T21:37:43.114Z,90.56
2019-04-22T21:40:08.307Z,90.10
2019-04-22T21:42:47.215Z,90.20
2019-04-22T21:45:07.352Z,89.69
2019-04-22T21:47:51.796Z,88.84
2019-04-22T21:52:54.553Z,87.41
2019-04-22T21:55:16.467Z,86.89
2019-04-22T21:58:05.134Z,86.54
2019-04-22T22:03:10.903Z,86.49
2019-04-22T22:05:28.823Z,87.57
2019-04-22T22:07:57.226Z,87.28
2019-04-22T22:10:41.586Z,86.90
2019-04-22T22:13:13.835Z,87.54
2019-04-22T22:15:46.564Z,88.34
2019-04-22T22:18:08.741Z,88.55
2019-04-22T22:20:51.149Z,87.94
2019-04-22T22:23:22.348Z,87.47
2019-04-22T22:25:44.125Z,87.47
2019-04-22T22:28:33.181Z,87.62
2019-04-22T22:33:17.583Z,89.00
2019-04-22T22:35:45.659Z,88.83
2019-04-22T22:38:19.596Z,88.48
2019-04-22T22:40:35.922Z,88.93
2019-04-22T22:43:11.785Z,88.75
2019-04-22T22:45:41.308Z,88.86
2019-04-22T22:48:26.677Z,89.31
2019-04-22T22:50:52.195Z,89.44
2019-04-22T22:53:37.185Z,89.68
2019-04-22T22:56:00.452Z,89.80
2019-04-22T22:58:32.781Z,89.79
2019-04-22T23:00:58.403Z,89.93
2019-04-22T23:03:45.638Z,89.77
2019-04-22T23:06:03.187Z,89.89
2019-04-22T23:08:51.794Z,90.25
2019-04-22T23:11:05.393Z,90.14
2019-04-22T23:13:35.969Z,90.22
2019-04-22T23:16:01.016Z,90.39
2019-04-22T23:18:17.166Z,90.88
2019-04-22T23:20:49.609Z,90.58
2019-04-22T23:23:41.003Z,90.53
2019-04-22T23:26:06.117Z,90.94
2019-04-22T23:28:57.649Z,91.71
2019-04-22T23:31:43.409Z,92.49
2019-04-22T23:34:21.817Z,93.20
2019-04-22T23:37:16.684Z,93.16
2019-04-22T23:42:23.592Z,92.88
2019-04-22T23:45:00.364Z,92.88
2019-04-22T23:47:29.859Z,92.89
2019-04-22T23:50:08.840Z,93.04
2019-04-22T23:53:00.682Z,93.11
2019-04-22T23:55:33.837Z,93.39
2019-04-22T23:58:03.486Z,93.81
